Time;durP1;ratioP1;P1;durP2;ratioP2;P2;SDS_P1;SDS_P2;PMS_P1;PMS_P2;Temp;Humidity;BMP_temperature;BMP_pressure;BME280_temperature;BME280_humidity;BME280_pressure;Samples;Min_cycle;Max_cycle;Signal;HPM_P1;HPM_P2
2022/01/17 00:02:25;;;;;;;11.82;8.85;;;2.90;84.60;;;;;;5056232;28;20217;-59
2022/01/17 00:04:52;;;;;;;12.35;9.45;;;2.90;84.90;;;;;;5056319;28;20216;-57
2022/01/17 00:07:20;;;;;;;10.60;8.23;;;2.80;85.00;;;;;;5056264;28;20204;-57
2022/01/17 00:09:47;;;;;;;13.18;9.10;;;2.80;85.20;;;;;;5056036;28;20201;-57
2022/01/17 00:12:14;;;;;;;11.07;8.15;;;2.70;85.50;;;;;;5055901;28;20243;-57
2022/01/17 00:14:42;;;;;;;10.35;8.30;;;2.70;85.80;;;;;;5054567;28;20269;-58
2022/01/17 00:17:27;;;;;;;10.35;7.80;;;2.80;85.70;;;;;;5056066;28;20590;-58
2022/01/17 00:19:55;;;;;;;13.05;9.13;;;2.80;85.70;;;;;;5055988;28;20213;-58
2022/01/17 00:22:24;;;;;;;11.38;8.40;;;2.80;85.70;;;;;;5055991;28;20197;-60
2022/01/17 00:24:51;;;;;;;9.95;7.93;;;2.80;85.70;;;;;;5055566;28;20206;-58
2022/01/17 00:27:18;;;;;;;13.18;9.30;;;2.80;85.70;;;;;;5055855;28;20212;-59
2022/01/17 00:29:45;;;;;;;11.13;8.07;;;2.90;85.70;;;;;;5054473;28;20208;-58
2022/01/17 00:32:12;;;;;;;11.63;8.38;;;2.90;85.40;;;;;;5055729;28;20213;-58
2022/01/17 00:34:39;;;;;;;14.00;8.57;;;3.00;85.40;;;;;;5055612;28;20233;-59
2022/01/17 00:37:06;;;;;;;11.43;8.50;;;3.30;85.10;;;;;;5055663;28;20357;-59
2022/01/17 00:39:34;;;;;;;12.68;9.30;;;3.50;84.00;;;;;;5055379;28;20206;-59
2022/01/17 00:42:01;;;;;;;13.00;8.80;;;3.80;84.10;;;;;;5055646;28;20229;-59
2022/01/17 00:44:28;;;;;;;13.27;8.13;;;3.90;82.80;;;;;;5054181;28;20209;-56
2022/01/17 00:46:55;;;;;;;10.00;7.57;;;4.00;82.00;;;;;;5054501;28;20240;-58
2022/01/17 00:49:22;;;;;;;12.13;8.90;;;4.20;82.10;;;;;;5055316;28;20212;-59
2022/01/17 00:51:49;;;;;;;9.65;8.15;;;4.30;81.20;;;;;;5055514;28;20212;-58
2022/01/17 00:54:16;;;;;;;12.57;8.57;;;4.40;80.40;;;;;;5054946;28;20225;-59
2022/01/17 00:56:45;;;;;;;12.13;8.95;;;4.40;80.70;;;;;;5055306;28;20236;-58
2022/01/17 00:59:12;;;;;;;11.27;8.60;;;4.60;80.30;;;;;;5054014;28;20247;-57
2022/01/17 01:01:39;;;;;;;11.20;8.07;;;4.50;79.60;;;;;;5055082;28;20660;-56
2022/01/17 01:04:06;;;;;;;11.10;9.05;;;4.60;80.50;;;;;;5055142;28;20216;-57
2022/01/17 01:06:32;;;;;;;10.32;8.00;;;4.60;79.30;;;;;;5055128;28;20208;-59
2022/01/17 01:08:59;;;;;;;10.52;7.97;;;4.50;79.10;;;;;;5054935;28;20205;-57
2022/01/17 01:11:26;;;;;;;10.90;8.40;;;4.60;80.00;;;;;;5054961;28;20268;-59
2022/01/17 01:13:54;;;;;;;12.80;8.98;;;4.70;79.10;;;;;;5053595;28;20674;-54
2022/01/17 01:16:33;;;;;;;11.43;8.20;;;4.80;79.30;;;;;;5054911;28;20208;-55
2022/01/17 01:19:25;;;;;;;10.95;8.27;;;4.90;79.60;;;;;;5054889;28;20208;-55
2022/01/17 01:30:29;;;;;;;10.30;8.13;;;5.10;78.20;;;;;;5012780;28;20202;-55
2022/01/17 01:32:58;;;;;;;10.45;8.68;;;5.20;78.70;;;;;;5012741;28;20214;-56
2022/01/17 01:35:28;;;;;;;12.88;9.38;;;5.30;78.60;;;;;;5032308;28;20229;-55
2022/01/17 01:37:55;;;;;;;9.95;8.50;;;5.30;78.50;;;;;;5054560;28;20263;-56
2022/01/17 01:40:22;;;;;;;12.35;9.10;;;5.30;78.20;;;;;;5054371;28;20233;-55
2022/01/17 01:42:52;;;;;;;12.32;8.98;;;5.30;78.10;;;;;;5053156;28;20288;-56
2022/01/17 01:45:21;;;;;;;11.05;9.15;;;5.40;78.30;;;;;;5054372;28;20198;-56
2022/01/17 01:47:49;;;;;;;12.25;8.43;;;5.40;78.20;;;;;;5054296;28;20229;-58
2022/01/17 01:50:16;;;;;;;13.93;9.90;;;5.30;77.30;;;;;;5054307;28;20301;-55
2022/01/17 01:52:43;;;;;;;12.25;10.10;;;5.30;78.00;;;;;;5054197;28;20454;-56
2022/01/17 01:55:16;;;;;;;14.98;9.45;;;5.30;77.90;;;;;;5054020;28;20240;-56
2022/01/17 01:57:43;;;;;;;10.10;8.85;;;5.30;77.90;;;;;;5053211;28;20201;-55
2022/01/17 02:00:11;;;;;;;15.40;9.75;;;4.90;77.50;;;;;;5053700;28;20207;-56
2022/01/17 02:02:39;;;;;;;13.27;9.77;;;4.50;79.30;;;;;;5054046;28;20205;-58
2022/01/17 02:05:08;;;;;;;13.45;9.88;;;4.20;80.20;;;;;;5053974;28;20702;-57
2022/01/17 02:07:36;;;;;;;16.23;10.48;;;3.80;81.80;;;;;;5052593;28;20205;-56
2022/01/17 02:10:04;;;;;;;14.70;10.18;;;3.60;82.60;;;;;;5053876;28;20672;-57
2022/01/17 02:12:32;;;;;;;14.88;10.73;;;3.40;83.50;;;;;;5053734;28;20329;-56
2022/01/17 02:14:59;;;;;;;15.93;10.73;;;3.40;83.60;;;;;;5052364;28;20229;-55
2022/01/17 02:17:27;;;;;;;14.05;10.05;;;3.20;84.30;;;;;;5053729;28;20205;-55
2022/01/17 02:20:04;;;;;;;15.70;10.38;;;3.20;84.60;;;;;;5053634;28;20197;-56
2022/01/17 02:22:31;;;;;;;16.33;10.60;;;3.20;84.50;;;;;;5053576;28;20201;-55
2022/01/17 02:24:58;;;;;;;18.27;10.77;;;3.00;85.00;;;;;;5053558;28;20235;-60
2022/01/17 02:27:25;;;;;;;11.70;9.80;;;3.00;85.20;;;;;;5053658;28;20284;-61
2022/01/17 02:29:52;;;;;;;12.65;9.02;;;2.90;85.70;;;;;;5052304;28;20201;-60
2022/01/17 02:32:19;;;;;;;12.30;9.25;;;2.90;85.80;;;;;;5053278;28;20296;-61
2022/01/17 02:34:46;;;;;;;14.80;9.75;;;2.70;86.20;;;;;;5053442;28;20233;-60
2022/01/17 02:37:15;;;;;;;13.20;10.38;;;2.60;87.00;;;;;;5053372;28;20295;-58
2022/01/17 02:39:42;;;;;;;14.73;11.77;;;2.50;87.70;;;;;;5053532;28;20263;-58
2022/01/17 02:42:11;;;;;;;18.45;11.40;;;2.50;88.60;;;;;;5053315;28;20240;-60
2022/01/17 02:44:44;;;;;;;17.15;12.30;;;2.40;89.00;;;;;;5051959;28;20201;-60
2022/01/17 02:47:11;;;;;;;15.48;11.05;;;2.40;89.70;;;;;;5053330;28;20208;-61
2022/01/17 02:49:38;;;;;;;17.27;11.38;;;2.40;89.70;;;;;;5053183;28;20533;-60
2022/01/17 02:52:05;;;;;;;14.82;10.40;;;2.40;89.70;;;;;;5052967;28;20259;-60
2022/01/17 02:54:33;;;;;;;16.33;10.70;;;2.40;89.60;;;;;;5053062;28;20221;-56
2022/01/17 02:57:00;;;;;;;13.82;10.50;;;2.50;89.50;;;;;;5053111;28;20208;-59
2022/01/17 02:59:27;;;;;;;12.13;9.73;;;2.50;89.50;;;;;;5051736;28;20229;-59
2022/01/17 03:01:55;;;;;;;14.13;10.00;;;2.60;89.20;;;;;;5053144;28;20255;-56
2022/01/17 03:04:22;;;;;;;15.27;10.50;;;2.70;89.20;;;;;;5052953;28;20203;-59
2022/01/17 03:06:49;;;;;;;15.25;11.77;;;2.80;88.10;;;;;;5052774;28;20208;-60
2022/01/17 03:09:16;;;;;;;14.77;10.35;;;2.80;87.90;;;;;;5052956;28;20288;-59
2022/01/17 03:11:45;;;;;;;13.43;9.95;;;2.80;88.20;;;;;;5052073;28;20237;-59
2022/01/17 03:14:12;;;;;;;15.10;10.30;;;2.80;88.80;;;;;;5051546;28;20209;-59
2022/01/17 03:16:45;;;;;;;15.50;10.95;;;2.90;88.20;;;;;;5052814;28;20228;-59
2022/01/17 03:19:12;;;;;;;14.93;10.18;;;2.90;88.00;;;;;;5052817;28;20212;-59
2022/01/17 03:21:39;;;;;;;13.70;9.98;;;3.00;88.10;;;;;;5052686;28;20207;-58
2022/01/17 03:24:07;;;;;;;13.98;10.35;;;3.10;87.80;;;;;;5052652;28;20221;-58
2022/01/17 03:26:34;;;;;;;15.95;10.02;;;3.30;87.70;;;;;;5052703;28;20665;-59
2022/01/17 03:29:05;;;;;;;14.35;10.13;;;3.50;87.10;;;;;;5051518;28;20202;-60
2022/01/17 03:31:32;;;;;;;15.35;10.60;;;3.70;86.40;;;;;;5052724;28;20201;-59
2022/01/17 03:33:59;;;;;;;15.93;10.73;;;3.80;86.10;;;;;;5052635;28;20198;-59
2022/01/17 03:36:26;;;;;;;14.27;10.40;;;4.00;85.90;;;;;;5052499;28;20583;-59
2022/01/17 03:38:55;;;;;;;14.07;10.55;;;4.10;85.30;;;;;;5052287;28;20211;-58
2022/01/17 03:41:22;;;;;;;17.88;11.63;;;4.20;84.70;;;;;;5052591;28;20202;-58
2022/01/17 03:43:49;;;;;;;15.20;11.02;;;4.10;83.60;;;;;;5051265;28;20228;-57
2022/01/17 03:46:17;;;;;;;12.60;10.27;;;3.90;83.60;;;;;;5052524;28;20672;-58
2022/01/17 03:48:44;;;;;;;15.50;11.13;;;3.80;84.40;;;;;;5052446;28;20201;-60
2022/01/17 03:51:11;;;;;;;14.18;11.45;;;3.90;85.10;;;;;;5052465;28;20661;-60
2022/01/17 03:53:38;;;;;;;15.52;11.27;;;4.10;84.50;;;;;;5052098;28;20694;-60
2022/01/17 03:56:05;;;;;;;13.77;11.40;;;4.20;84.30;;;;;;5052345;28;20243;-59
2022/01/17 03:58:32;;;;;;;16.40;11.02;;;4.30;84.10;;;;;;5051104;28;20197;-60
2022/01/17 04:01:02;;;;;;;15.07;9.80;;;4.30;83.80;;;;;;5052300;28;20631;-60
2022/01/17 04:03:30;;;;;;;15.57;10.95;;;4.40;83.50;;;;;;5052479;28;20256;-59
2022/01/17 04:05:57;;;;;;;15.75;11.25;;;4.40;83.20;;;;;;5052268;28;20674;-58
2022/01/17 04:08:24;;;;;;;14.25;10.27;;;4.40;83.50;;;;;;5052156;28;20292;-59
2022/01/17 04:10:51;;;;;;;13.70;10.43;;;4.50;83.20;;;;;;5052363;28;20664;-57
2022/01/17 04:13:19;;;;;;;12.95;10.10;;;4.40;82.60;;;;;;5050769;28;20243;-59
2022/01/17 04:15:46;;;;;;;12.60;10.73;;;4.20;83.50;;;;;;5052306;28;20229;-58
2022/01/17 04:18:14;;;;;;;13.77;10.02;;;4.10;84.20;;;;;;5052360;28;20300;-59
2022/01/17 04:20:43;;;;;;;14.13;10.15;;;4.20;84.50;;;;;;5052133;28;20209;-58
2022/01/17 04:23:12;;;;;;;14.20;11.02;;;4.20;84.30;;;;;;5055299;28;20224;-58
2022/01/17 04:25:41;;;;;;;14.93;10.30;;;4.20;83.90;;;;;;5055967;28;20205;-59
2022/01/17 04:28:10;;;;;;;16.45;10.82;;;3.80;84.90;;;;;;5054609;28;20201;-58
2022/01/17 04:30:38;;;;;;;14.00;9.65;;;3.80;85.60;;;;;;5055773;28;20201;-58
2022/01/17 04:33:07;;;;;;;14.70;10.32;;;3.90;85.90;;;;;;5055660;28;20237;-58
2022/01/17 04:35:35;;;;;;;15.52;9.75;;;3.80;85.80;;;;;;5055688;28;20336;-59
2022/01/17 04:38:05;;;;;;;12.38;8.85;;;3.40;86.80;;;;;;5055533;28;20223;-58
2022/01/17 04:40:36;;;;;;;17.42;10.90;;;3.30;87.80;;;;;;5055683;28;20205;-59
2022/01/17 04:43:04;;;;;;;14.70;9.38;;;3.30;88.50;;;;;;5054247;28;20209;-59
2022/01/17 04:45:32;;;;;;;13.65;9.50;;;3.20;88.30;;;;;;5055599;28;20262;-60
2022/01/17 04:47:59;;;;;;;14.05;9.07;;;3.10;89.30;;;;;;5055413;28;20743;-59
2022/01/17 04:50:27;;;;;;;15.25;9.50;;;3.20;89.50;;;;;;5055464;28;20213;-60
2022/01/17 04:52:56;;;;;;;14.18;9.00;;;3.20;89.30;;;;;;5055195;28;20292;-60
2022/01/17 04:55:25;;;;;;;12.77;8.93;;;3.30;89.20;;;;;;5055271;28;20229;-59
2022/01/17 04:57:53;;;;;;;13.10;8.60;;;3.50;89.10;;;;;;5053976;28;20292;-60
2022/01/17 05:00:22;;;;;;;18.10;10.55;;;3.70;88.50;;;;;;5055136;28;20209;-60
2022/01/17 05:02:49;;;;;;;14.65;9.02;;;3.80;87.90;;;;;;5055058;28;20301;-57
2022/01/17 05:05:17;;;;;;;14.80;9.05;;;3.90;87.30;;;;;;5055190;28;20573;-59
2022/01/17 05:07:45;;;;;;;15.18;9.57;;;3.90;87.00;;;;;;5054970;28;20209;-58
2022/01/17 05:10:15;;;;;;;12.70;9.05;;;4.00;87.00;;;;;;5055097;28;20208;-59
2022/01/17 05:12:44;;;;;;;14.25;9.63;;;4.20;86.70;;;;;;5054445;28;20291;-59
2022/01/17 05:15:24;;;;;;;13.07;8.02;;;4.30;86.40;;;;;;5054714;28;20288;-60
2022/01/17 05:18:12;;;;;;;12.73;8.23;;;4.30;86.00;;;;;;5054930;28;20205;-58
2022/01/17 05:20:41;;;;;;;10.77;8.05;;;4.40;85.50;;;;;;5054927;28;20197;-59
2022/01/17 05:23:08;;;;;;;13.20;8.40;;;4.40;85.20;;;;;;5054543;28;20231;-60
2022/01/17 05:25:36;;;;;;;11.90;8.63;;;4.20;86.00;;;;;;5054663;28;20205;-59
2022/01/17 05:28:05;;;;;;;14.55;8.60;;;4.00;86.90;;;;;;5053360;28;20204;-58
2022/01/17 05:30:32;;;;;;;15.73;8.50;;;4.00;87.20;;;;;;5054710;28;20208;-58
2022/01/17 05:32:59;;;;;;;13.30;8.38;;;4.10;87.30;;;;;;5054155;28;20288;-60
2022/01/17 05:35:26;;;;;;;13.40;8.73;;;4.10;86.80;;;;;;5054496;28;20232;-59
2022/01/17 05:37:53;;;;;;;12.18;8.30;;;4.00;86.90;;;;;;5054212;28;20575;-59
2022/01/17 05:40:20;;;;;;;13.98;8.40;;;3.80;87.40;;;;;;5054566;28;20572;-59
2022/01/17 05:42:47;;;;;;;12.50;8.45;;;3.60;88.30;;;;;;5053136;28;20304;-57
2022/01/17 05:45:16;;;;;;;11.50;8.25;;;3.50;89.10;;;;;;5054451;28;20201;-60
2022/01/17 05:47:43;;;;;;;12.77;8.43;;;3.60;89.20;;;;;;5054341;28;20207;-56
2022/01/17 05:50:10;;;;;;;14.05;8.52;;;3.50;89.20;;;;;;5054247;28;20296;-59
2022/01/17 05:52:38;;;;;;;14.07;7.85;;;3.50;89.80;;;;;;5054061;28;20300;-58
2022/01/17 05:55:07;;;;;;;12.07;8.07;;;3.40;90.10;;;;;;5054169;28;20207;-59
2022/01/17 05:57:34;;;;;;;11.30;7.70;;;3.20;90.80;;;;;;5054266;28;20220;-57
2022/01/17 06:00:01;;;;;;;12.90;8.23;;;3.20;91.10;;;;;;5052700;28;20207;-58
2022/01/17 06:02:29;;;;;;;15.23;7.97;;;3.30;91.20;;;;;;5053991;28;20205;-56
2022/01/17 06:04:56;;;;;;;12.75;8.25;;;3.40;90.70;;;;;;5053986;28;20649;-56
2022/01/17 06:07:23;;;;;;;12.38;8.68;;;3.40;90.50;;;;;;5053857;28;20224;-56
2022/01/17 06:09:49;;;;;;;15.75;8.32;;;3.40;90.80;;;;;;5053933;28;20292;-57
2022/01/17 06:12:16;;;;;;;13.98;8.05;;;3.40;90.70;;;;;;5053682;28;20333;-56
2022/01/17 06:14:43;;;;;;;12.15;7.90;;;3.40;90.80;;;;;;5052442;28;20656;-55
2022/01/17 06:17:10;;;;;;;13.63;8.98;;;3.30;91.10;;;;;;5053728;28;20238;-56
2022/01/17 06:19:39;;;;;;;12.00;8.43;;;3.20;91.30;;;;;;5053584;28;20743;-59
2022/01/17 06:22:07;;;;;;;11.77;7.40;;;3.20;91.50;;;;;;5053745;28;20622;-59
2022/01/17 06:24:34;;;;;;;11.60;7.07;;;3.20;91.80;;;;;;5053566;28;20232;-57
2022/01/17 06:27:02;;;;;;;9.88;7.20;;;3.20;91.90;;;;;;5053622;28;20304;-57
2022/01/17 06:29:29;;;;;;;12.48;8.05;;;3.20;91.70;;;;;;5052300;28;20284;-59
2022/01/17 06:31:56;;;;;;;12.50;7.72;;;3.20;91.70;;;;;;5053490;28;20209;-55
2022/01/17 06:34:24;;;;;;;12.80;8.68;;;3.20;91.70;;;;;;5053362;28;20208;-56
2022/01/17 06:36:52;;;;;;;11.07;7.78;;;3.20;91.80;;;;;;5053246;28;20233;-57
2022/01/17 06:39:19;;;;;;;10.40;7.00;;;3.20;91.70;;;;;;5053305;28;20208;-56
2022/01/17 06:41:46;;;;;;;14.15;7.95;;;3.30;91.40;;;;;;5053393;28;20202;-57
2022/01/17 06:44:13;;;;;;;12.70;8.50;;;3.30;91.10;;;;;;5051860;28;20755;-56
2022/01/17 06:46:40;;;;;;;13.57;8.48;;;3.40;91.10;;;;;;5052310;28;20225;-58
2022/01/17 06:49:07;;;;;;;10.45;7.53;;;3.60;91.20;;;;;;5053169;28;20205;-57
2022/01/17 06:51:33;;;;;;;11.50;7.90;;;3.70;90.30;;;;;;5053085;28;20220;-59
2022/01/17 06:54:02;;;;;;;10.18;6.93;;;3.80;90.10;;;;;;5053015;28;20197;-58
2022/01/17 06:56:29;;;;;;;12.88;8.23;;;3.80;89.10;;;;;;5052994;28;20257;-55
2022/01/17 06:58:56;;;;;;;12.35;7.78;;;3.80;89.30;;;;;;5051728;28;20207;-59
2022/01/17 07:01:23;;;;;;;10.52;8.15;;;3.70;89.50;;;;;;5052834;28;20205;-59
2022/01/17 07:03:52;;;;;;;12.25;7.13;;;3.50;89.70;;;;;;5052933;28;20664;-59
2022/01/17 07:06:19;;;;;;;12.52;7.30;;;3.60;90.10;;;;;;5052931;28;20217;-59
2022/01/17 07:08:46;;;;;;;11.25;7.93;;;3.50;89.50;;;;;;5052762;28;20656;-60
2022/01/17 07:11:14;;;;;;;10.57;7.57;;;3.50;90.20;;;;;;5052691;28;20201;-59
2022/01/17 07:13:41;;;;;;;11.82;7.32;;;3.40;90.40;;;;;;5051488;28;20205;-57
2022/01/17 07:16:08;;;;;;;8.73;6.63;;;3.40;90.80;;;;;;5052721;28;20243;-60
2022/01/17 07:18:35;;;;;;;10.23;7.00;;;3.40;90.80;;;;;;5052725;28;20568;-59
2022/01/17 07:21:02;;;;;;;12.27;6.82;;;3.40;90.50;;;;;;5052840;28;20207;-57
2022/01/17 07:23:29;;;;;;;10.50;7.30;;;3.50;90.80;;;;;;5052364;28;20228;-58
2022/01/17 07:25:56;;;;;;;11.05;7.20;;;3.60;90.60;;;;;;5052488;28;20209;-59
2022/01/17 07:28:24;;;;;;;8.68;6.20;;;3.60;90.20;;;;;;5051239;28;20251;-60
2022/01/17 07:30:51;;;;;;;9.55;6.50;;;3.60;90.30;;;;;;5052656;28;20574;-59
2022/01/17 07:33:20;;;;;;;9.82;7.05;;;3.50;90.50;;;;;;5052489;28;20208;-60
2022/01/17 07:35:48;;;;;;;10.93;6.70;;;3.40;90.70;;;;;;5052518;28;20201;-59
2022/01/17 07:38:15;;;;;;;9.60;6.93;;;3.40;90.80;;;;;;5052346;28;20202;-60
2022/01/17 07:40:43;;;;;;;10.15;6.25;;;3.40;90.60;;;;;;5052552;28;20635;-58
2022/01/17 07:43:10;;;;;;;8.23;6.15;;;3.40;90.50;;;;;;5051017;28;20544;-59
2022/01/17 07:45:45;;;;;;;8.32;6.03;;;3.50;90.60;;;;;;5052450;28;20244;-60
2022/01/17 07:48:44;;;;;;;9.05;6.10;;;3.50;90.60;;;;;;5052412;28;20208;-60
2022/01/17 07:51:10;;;;;;;9.68;6.18;;;3.50;90.40;;;;;;5052295;28;20689;-61
2022/01/17 07:53:37;;;;;;;8.63;6.20;;;3.50;90.40;;;;;;5052252;28;20216;-59
2022/01/17 07:56:04;;;;;;;9.73;6.47;;;3.50;90.40;;;;;;5052368;28;20232;-58
2022/01/17 07:58:31;;;;;;;7.35;6.07;;;3.40;90.50;;;;;;5054918;28;20284;-57
2022/01/17 08:00:59;;;;;;;9.60;6.65;;;3.30;90.80;;;;;;5056283;28;20674;-58
2022/01/17 08:03:26;;;;;;;9.70;6.80;;;3.30;90.80;;;;;;5056378;28;20211;-59
2022/01/17 08:05:53;;;;;;;8.95;6.53;;;3.30;90.90;;;;;;5056247;28;20248;-60
2022/01/17 08:08:21;;;;;;;8.52;6.10;;;3.40;90.80;;;;;;5055818;28;20200;-60
2022/01/17 08:10:48;;;;;;;9.43;7.28;;;3.30;90.50;;;;;;5055982;28;20566;-60
2022/01/17 08:13:15;;;;;;;12.50;7.00;;;3.40;90.80;;;;;;5054555;28;20779;-56
2022/01/17 08:15:43;;;;;;;8.98;6.93;;;3.40;90.30;;;;;;5056020;28;20292;-62
2022/01/17 08:18:12;;;;;;;9.52;6.80;;;3.40;90.30;;;;;;5055774;28;20283;-58
2022/01/17 08:20:39;;;;;;;10.88;7.20;;;3.40;90.40;;;;;;5055722;28;20247;-59
2022/01/17 08:23:06;;;;;;;9.43;6.93;;;3.60;90.40;;;;;;5055587;28;20582;-59
2022/01/17 08:25:33;;;;;;;9.82;7.10;;;3.60;89.30;;;;;;5055806;28;20211;-60
2022/01/17 08:28:01;;;;;;;8.13;6.43;;;3.70;89.10;;;;;;5054515;28;20210;-59
2022/01/17 08:30:28;;;;;;;12.85;6.85;;;3.80;89.30;;;;;;5055673;28;20207;-58
2022/01/17 08:32:55;;;;;;;9.98;6.68;;;3.90;88.90;;;;;;5055549;28;20233;-59
2022/01/17 08:35:23;;;;;;;10.10;6.93;;;3.90;88.10;;;;;;5055486;28;20229;-61
2022/01/17 08:37:50;;;;;;;10.60;6.78;;;3.80;88.20;;;;;;5055198;28;20229;-59
2022/01/17 08:40:19;;;;;;;9.07;6.57;;;3.70;88.80;;;;;;5055597;28;20216;-59
2022/01/17 08:42:46;;;;;;;11.35;6.22;;;3.70;88.90;;;;;;5054736;28;20573;-60
2022/01/17 08:45:15;;;;;;;9.80;6.03;;;3.70;88.70;;;;;;5055438;28;20674;-59
2022/01/17 08:47:45;;;;;;;9.23;6.57;;;3.60;88.80;;;;;;5055502;28;20205;-58
2022/01/17 08:50:13;;;;;;;10.00;6.28;;;3.50;89.40;;;;;;5055436;28;20280;-60
2022/01/17 08:52:41;;;;;;;10.57;6.47;;;3.50;89.70;;;;;;5055199;28;20212;-56
2022/01/17 08:55:09;;;;;;;7.53;6.30;;;3.40;89.60;;;;;;5055221;28;20237;-59
2022/01/17 08:57:35;;;;;;;6.50;5.53;;;3.40;90.00;;;;;;5055118;28;20233;-59
2022/01/17 09:00:05;;;;;;;6.75;5.63;;;3.50;90.20;;;;;;5053916;28;20284;-61
2022/01/17 09:02:32;;;;;;;7.60;5.55;;;3.50;89.30;;;;;;5055032;28;20201;-58
2022/01/17 09:04:59;;;;;;;8.18;5.85;;;3.60;89.40;;;;;;5055207;28;20203;-59
2022/01/17 09:07:26;;;;;;;8.40;6.07;;;3.60;88.90;;;;;;5054732;28;20740;-60
2022/01/17 09:09:54;;;;;;;9.60;5.70;;;3.60;88.60;;;;;;5054064;28;20197;-59
2022/01/17 09:12:21;;;;;;;7.93;6.05;;;3.70;89.10;;;;;;5054856;28;20231;-57
2022/01/17 09:14:48;;;;;;;7.63;5.50;;;3.70;88.20;;;;;;5053603;28;20212;-57
2022/01/17 09:17:15;;;;;;;8.15;5.60;;;3.80;88.50;;;;;;5054890;28;20324;-59
2022/01/17 09:19:43;;;;;;;8.77;5.88;;;3.90;88.10;;;;;;5054816;28;20243;-60
2022/01/17 09:22:11;;;;;;;8.40;5.65;;;3.90;87.40;;;;;;5054737;28;20228;-57
2022/01/17 09:24:39;;;;;;;7.60;5.57;;;4.00;87.70;;;;;;5054580;28;20210;-59
2022/01/17 09:27:08;;;;;;;7.63;5.57;;;4.00;87.30;;;;;;5054770;28;20211;-59
2022/01/17 09:29:35;;;;;;;7.25;4.88;;;4.00;87.00;;;;;;5053252;28;20284;-61
2022/01/17 09:32:02;;;;;;;6.38;5.35;;;3.90;87.60;;;;;;5054573;28;20201;-59
2022/01/17 09:34:29;;;;;;;5.93;5.25;;;3.90;87.50;;;;;;5054647;28;20205;-60
2022/01/17 09:36:56;;;;;;;6.95;5.65;;;3.90;87.50;;;;;;5054358;28;20718;-63
2022/01/17 09:39:23;;;;;;;6.75;5.28;;;4.00;87.70;;;;;;5054373;28;20699;-58
2022/01/17 09:41:50;;;;;;;7.88;6.22;;;4.00;87.20;;;;;;5054363;28;20215;-58
2022/01/17 09:44:18;;;;;;;6.47;5.40;;;4.10;87.50;;;;;;5053106;28;20208;-57
2022/01/17 09:46:48;;;;;;;7.32;5.85;;;4.20;87.20;;;;;;5054320;28;20215;-60
2022/01/17 09:49:22;;;;;;;6.65;5.47;;;4.20;86.80;;;;;;5054174;28;20208;-59
2022/01/17 09:54:37;;;;;;;7.75;5.65;;;4.20;86.70;;;;;;5053979;28;20753;-57
2022/01/17 09:57:08;;;;;;;6.30;5.28;;;4.30;86.60;;;;;;5053947;28;20320;-58
2022/01/17 09:59:39;;;;;;;5.85;5.25;;;4.40;86.30;;;;;;5052697;28;20640;-61
2022/01/17 10:02:07;;;;;;;7.80;6.00;;;4.30;86.00;;;;;;5054065;28;20287;-60
2022/01/17 10:04:35;;;;;;;6.22;5.57;;;4.30;86.70;;;;;;5054040;28;20201;-59
2022/01/17 10:07:04;;;;;;;6.07;4.50;;;4.30;86.50;;;;;;5053759;28;20216;-59
2022/01/17 10:09:33;;;;;;;5.68;4.70;;;4.50;86.40;;;;;;5053752;28;20212;-60
2022/01/17 10:12:02;;;;;;;6.35;5.22;;;4.60;85.20;;;;;;5053727;28;20691;-58
2022/01/17 10:14:31;;;;;;;5.70;5.07;;;4.70;85.50;;;;;;5052548;28;20563;-59
2022/01/17 10:16:59;;;;;;;5.57;4.50;;;4.70;84.40;;;;;;5053760;28;20320;-60
2022/01/17 10:19:27;;;;;;;5.10;4.60;;;4.70;84.50;;;;;;5053476;28;20208;-58
2022/01/17 10:21:58;;;;;;;5.10;4.60;;;4.80;84.30;;;;;;5053619;28;20221;-56
2022/01/17 10:24:32;;;;;;;4.88;4.38;;;4.90;84.10;;;;;;5053506;28;20205;-57
2022/01/17 10:35:22;;;;;;;4.45;4.10;;;5.00;81.90;;;;;;5053495;28;20205;-59
2022/01/17 10:38:00;;;;;;;4.50;4.18;;;5.20;82.40;;;;;;5053206;28;20608;-58
2022/01/17 10:40:29;;;;;;;5.22;4.57;;;5.40;82.10;;;;;;5053230;28;20211;-59
2022/01/17 10:42:56;;;;;;;5.38;4.97;;;5.50;81.20;;;;;;5052017;28;20212;-58
2022/01/17 10:45:26;;;;;;;4.57;4.13;;;5.30;81.30;;;;;;5053244;28;20213;-59
2022/01/17 10:47:56;;;;;;;4.60;4.20;;;5.50;81.80;;;;;;5053157;28;20652;-59
2022/01/17 10:50:25;;;;;;;5.00;4.60;;;5.50;81.10;;;;;;5053150;28;20227;-59
2022/01/17 10:52:54;;;;;;;4.60;4.20;;;5.50;80.80;;;;;;5053038;28;20569;-58
2022/01/17 10:55:23;;;;;;;5.00;4.65;;;5.70;80.60;;;;;;5052990;28;20240;-56
2022/01/17 10:57:51;;;;;;;5.05;4.55;;;5.70;80.40;;;;;;5051757;28;20228;-59
2022/01/17 11:00:20;;;;;;;4.50;4.20;;;5.70;79.40;;;;;;5053023;28;20205;-55
2022/01/17 11:02:50;;;;;;;4.53;4.22;;;5.70;80.00;;;;;;5052922;28;20205;-58
2022/01/17 11:05:19;;;;;;;5.00;4.60;;;5.80;80.60;;;;;;5052781;28;20205;-61
2022/01/17 11:07:48;;;;;;;4.68;4.38;;;6.00;79.60;;;;;;5052853;28;20241;-54
2022/01/17 11:10:20;;;;;;;4.53;4.25;;;6.00;78.80;;;;;;5052678;28;20201;-60
2022/01/17 11:12:48;;;;;;;3.92;3.72;;;6.20;78.80;;;;;;5051857;28;20244;-58
2022/01/17 11:15:16;;;;;;;4.38;4.13;;;6.20;77.50;;;;;;5052809;28;20204;-60
2022/01/17 11:17:50;;;;;;;5.32;5.03;;;6.00;78.00;;;;;;5052679;28;20316;-58
2022/01/17 11:20:21;;;;;;;4.28;3.90;;;6.00;78.00;;;;;;5052617;28;20273;-61
2022/01/17 11:22:49;;;;;;;4.35;4.15;;;6.00;77.90;;;;;;5052633;28;20205;-56
2022/01/17 11:25:19;;;;;;;5.20;4.72;;;6.00;78.20;;;;;;5052469;28;20686;-57
2022/01/17 11:27:46;;;;;;;4.55;4.20;;;6.10;78.10;;;;;;5051871;28;20240;-58
2022/01/17 11:30:14;;;;;;;3.63;3.33;;;6.10;78.00;;;;;;5052408;28;20233;-56
2022/01/17 11:32:42;;;;;;;4.55;4.25;;;6.20;79.10;;;;;;5058088;28;20623;-58
2022/01/17 11:35:09;;;;;;;4.65;4.25;;;6.30;77.70;;;;;;5059244;28;20205;-57
2022/01/17 11:37:40;;;;;;;4.18;3.95;;;6.40;77.40;;;;;;5059176;28;20233;-56
2022/01/17 11:40:09;;;;;;;4.00;3.72;;;6.50;77.30;;;;;;5059144;28;20204;-55
2022/01/17 11:42:40;;;;;;;4.75;4.35;;;6.40;77.20;;;;;;5059242;28;20240;-57
2022/01/17 11:45:36;;;;;;;4.50;4.20;;;6.30;77.20;;;;;;5058041;28;20201;-57
2022/01/17 11:48:09;;;;;;;3.80;3.60;;;6.10;77.90;;;;;;5059103;28;20250;-57
2022/01/17 11:50:45;;;;;;;7.28;6.57;;;6.30;78.60;;;;;;5059183;28;20493;-57
2022/01/17 11:53:47;;;;;;;7.10;6.38;;;6.30;79.20;;;;;;5058989;28;20208;-55
2022/01/17 11:56:36;;;;;;;6.60;6.00;;;6.40;79.60;;;;;;5051504;28;20207;-55
2022/01/17 11:59:31;;;;;;;4.72;4.32;;;6.40;80.10;;;;;;5057701;28;20239;-59
2022/01/17 12:02:17;;;;;;;4.90;4.50;;;6.20;79.60;;;;;;5059007;28;20262;-60
2022/01/17 12:05:44;;;;;;;5.95;4.40;;;6.00;80.20;;;;;;5058595;28;20251;-57
2022/01/17 12:08:15;;;;;;;4.25;3.85;;;5.70;81.80;;;;;;5058897;28;20201;-57
2022/01/17 12:10:46;;;;;;;5.32;4.55;;;5.50;82.90;;;;;;5058770;28;20229;-56
2022/01/17 12:13:42;;;;;;;4.50;4.10;;;5.60;83.00;;;;;;5057431;28;20237;-58
2022/01/17 12:16:16;;;;;;;4.35;3.95;;;5.70;83.10;;;;;;5058877;28;20216;-58
2022/01/17 12:18:45;;;;;;;4.40;4.00;;;5.50;83.00;;;;;;5058972;28;20228;-59
2022/01/17 12:21:30;;;;;;;5.30;4.55;;;5.50;83.20;;;;;;5058772;28;20791;-56
2022/01/17 12:24:36;;;;;;;4.75;4.25;;;5.60;82.60;;;;;;5058706;28;20209;-56
2022/01/17 12:27:19;;;;;;;5.00;4.50;;;5.60;82.30;;;;;;5058831;28;20288;-59
2022/01/17 12:29:51;;;;;;;4.93;4.43;;;5.80;82.60;;;;;;5056242;28;20201;-58
2022/01/17 12:32:39;;;;;;;5.40;4.90;;;5.90;81.00;;;;;;5058790;28;20535;-59
2022/01/17 12:35:13;;;;;;;7.72;5.82;;;5.90;81.10;;;;;;5058469;28;20213;-58
2022/01/17 12:37:42;;;;;;;6.22;5.03;;;5.50;81.10;;;;;;5058552;28;20601;-59
2022/01/17 12:40:13;;;;;;;5.85;5.05;;;5.40;81.70;;;;;;5058580;28;20204;-58
2022/01/17 12:43:02;;;;;;;5.30;4.80;;;5.50;81.40;;;;;;5057789;28;20224;-56
2022/01/17 12:45:32;;;;;;;6.38;5.78;;;5.70;81.00;;;;;;5055441;28;20367;-59
2022/01/17 12:48:01;;;;;;;6.85;6.13;;;5.80;81.00;;;;;;5055540;28;20240;-60
2022/01/17 12:50:32;;;;;;;7.15;6.07;;;5.90;79.90;;;;;;5055314;28;20564;-59
2022/01/17 12:53:00;;;;;;;6.45;5.85;;;6.10;79.20;;;;;;5055473;28;20228;-60
2022/01/17 12:55:34;;;;;;;6.30;5.70;;;6.00;78.50;;;;;;5055172;28;20208;-59
2022/01/17 12:58:09;;;;;;;8.13;5.97;;;5.70;78.50;;;;;;5053782;28;20250;-58
2022/01/17 13:00:36;;;;;;;5.40;4.97;;;5.50;78.90;;;;;;5055250;28;20211;-60
2022/01/17 13:03:03;;;;;;;7.10;6.10;;;5.40;79.90;;;;;;5055174;28;20244;-55
2022/01/17 13:05:32;;;;;;;5.82;5.43;;;5.50;80.40;;;;;;5055208;28;20202;-57
2022/01/17 13:08:03;;;;;;;6.03;5.45;;;5.70;80.10;;;;;;5054978;28;20217;-56
2022/01/17 13:10:31;;;;;;;6.15;5.55;;;5.80;78.60;;;;;;5054848;28;20212;-56
2022/01/17 13:12:58;;;;;;;7.45;6.25;;;5.70;78.20;;;;;;5053522;28;20351;-56
2022/01/17 13:15:26;;;;;;;7.10;6.50;;;5.30;78.60;;;;;;5054989;28;20206;-58
2022/01/17 13:17:54;;;;;;;5.90;5.40;;;5.00;79.00;;;;;;5054772;28;20231;-55
2022/01/17 13:20:23;;;;;;;6.40;5.80;;;5.10;80.40;;;;;;5054764;28;20232;-58
2022/01/17 13:22:57;;;;;;;6.43;5.97;;;5.20;80.50;;;;;;5054799;28;20206;-57